Time;durP1;ratioP1;P1;durP2;ratioP2;P2;SDS_P1;SDS_P2;PMS_P1;PMS_P2;Temp;Humidity;BMP_temperature;BMP_pressure;BME280_temperature;BME280_humidity;BME280_pressure;Samples;Min_cycle;Max_cycle;Signal;HPM_P1;HPM_P2
2023/10/12 00:01:24;;;;;;;15.95;6.28;;;;;;;15.94;76.03;99891.41;6095768;23;20022;-87
2023/10/12 00:03:58;;;;;;;12.48;5.05;;;;;;;15.90;75.91;99891.91;6069572;23;20025;-90
2023/10/12 00:06:26;;;;;;;10.82;5.40;;;;;;;15.83;75.99;99889.94;6118674;23;20487;-91
2023/10/12 00:08:53;;;;;;;12.82;5.97;;;;;;;15.85;76.20;99889.78;6095072;23;20018;-90
2023/10/12 00:11:20;;;;;;;12.52;5.75;;;;;;;15.82;75.92;99885.59;6094576;23;20025;-91
2023/10/12 00:13:51;;;;;;;11.27;5.28;;;;;;;15.86;75.76;99890.59;6093362;23;20088;-91
2023/10/12 00:16:18;;;;;;;14.52;5.60;;;;;;;15.84;75.73;99891.59;6095054;23;20017;-91
2023/10/12 00:18:49;;;;;;;12.18;5.30;;;;;;;15.81;75.54;99888.41;6094975;23;20022;-91
2023/10/12 00:21:25;;;;;;;12.20;5.68;;;;;;;15.73;75.47;99885.75;6079095;23;20037;-90
2023/10/12 00:23:53;;;;;;;10.40;5.18;;;;;;;15.78;75.49;99880.72;6070750;23;20034;-91
2023/10/12 00:26:20;;;;;;;12.70;5.68;;;;;;;15.70;75.66;99875.34;6069457;23;20025;-91
2023/10/12 00:28:52;;;;;;;12.00;5.70;;;;;;;15.69;75.71;99877.19;6073042;23;20053;-90
2023/10/12 00:31:19;;;;;;;13.43;5.68;;;;;;;15.69;75.40;99866.50;6070323;23;20076;-91
2023/10/12 00:33:48;;;;;;;11.05;5.45;;;;;;;15.65;75.69;99862.47;6093381;23;20009;-91
2023/10/12 00:36:21;;;;;;;11.18;5.22;;;;;;;15.67;75.42;99865.78;6094620;23;20021;-91
2023/10/12 00:38:49;;;;;;;17.77;5.63;;;;;;;15.64;75.54;99866.97;6144457;23;20032;-91
2023/10/12 00:41:17;;;;;;;13.50;5.82;;;;;;;15.65;75.75;99865.16;6093027;23;20044;-89
2023/10/12 00:44:08;;;;;;;10.85;5.90;;;;;;;15.58;76.43;99872.16;6093515;23;20029;-90
2023/10/12 00:51:50;;;;;;;11.52;4.50;;;;;;;15.55;76.48;99876.00;6118317;23;20088;-90
2023/10/12 00:54:26;;;;;;;13.45;5.35;;;;;;;15.63;76.11;99867.16;6117548;23;20052;-90
2023/10/12 00:56:57;;;;;;;9.45;5.47;;;;;;;15.55;76.60;99861.81;6139787;23;20469;-90
2023/10/12 00:59:24;;;;;;;12.15;5.03;;;;;;;15.59;75.77;99868.47;6093047;23;20072;-90
2023/10/12 01:01:51;;;;;;;14.60;5.07;;;;;;;15.62;75.25;99860.09;6092429;23;20662;-90
2023/10/12 01:04:18;;;;;;;11.52;5.35;;;;;;;15.57;75.40;99860.63;6094086;23;20669;-90
2023/10/12 01:06:47;;;;;;;13.00;5.45;;;;;;;15.59;75.38;99861.28;6117513;23;20096;-90
2023/10/12 01:09:20;;;;;;;11.77;4.60;;;;;;;15.51;75.59;99855.94;6084733;23;20021;-90
2023/10/12 01:11:53;;;;;;;;;;;;;;;15.23;76.18;99850.06;6094180;23;20026;-90
2023/10/12 01:14:26;;;;;;;10.70;5.20;;;;;;;15.48;75.78;99858.94;6094735;23;19923;-91
2023/10/12 01:16:57;;;;;;;;;;;;;;;15.27;76.76;99859.44;6095434;23;20100;-90
2023/10/12 01:19:31;;;;;;;11.93;5.40;;;;;;;15.47;76.26;99849.25;6142844;23;19920;-90
2023/10/12 01:22:11;;;;;;;13.60;5.55;;;;;;;15.45;76.48;99851.25;6093815;23;20022;-91
2023/10/12 01:27:21;;;;;;;8.70;5.03;;;;;;;15.41;75.97;99853.41;6094306;23;20026;-90
2023/10/12 01:29:50;;;;;;;14.63;6.35;;;;;;;15.36;75.78;99858.41;6093133;23;20017;-90
2023/10/12 01:34:51;;;;;;;16.88;6.28;;;;;;;15.34;75.51;99844.41;6117964;23;20365;-90
2023/10/12 01:37:22;;;;;;;10.48;5.38;;;;;;;15.37;75.42;99841.38;6119864;23;20018;-90
2023/10/12 01:48:07;;;;;;;13.57;5.55;;;;;;;15.33;75.92;99845.38;6119518;23;20082;-91
2023/10/12 01:50:37;;;;;;;14.27;5.68;;;;;;;15.31;75.81;99844.72;6096083;23;20021;-91
2023/10/12 01:53:11;;;;;;;10.52;5.75;;;;;;;15.31;75.58;99835.84;6119125;23;20511;-91
2023/10/12 01:55:43;;;;;;;10.98;5.95;;;;;;;15.28;75.75;99838.88;6119131;23;20521;-90
2023/10/12 01:58:12;;;;;;;11.88;5.18;;;;;;;15.23;75.72;99835.84;6094976;23;20025;-90
2023/10/12 02:00:42;;;;;;;9.60;5.07;;;;;;;15.27;75.66;99842.56;6096368;23;20088;-91
2023/10/12 02:03:17;;;;;;;13.73;5.82;;;;;;;15.25;75.42;99844.56;6095769;23;20646;-90
2023/10/12 02:05:58;;;;;;;10.98;5.85;;;;;;;15.18;75.59;99839.00;6118796;23;20080;-91
2023/10/12 02:08:35;;;;;;;10.30;4.93;;;;;;;15.16;75.53;99828.50;6119906;23;20021;-90
2023/10/12 02:11:26;;;;;;;12.93;5.72;;;;;;;15.13;75.84;99834.16;6072680;23;20036;-90
2023/10/12 02:14:00;;;;;;;10.77;5.63;;;;;;;15.13;75.77;99836.84;6098582;23;20072;-90
2023/10/12 02:16:31;;;;;;;11.15;5.13;;;;;;;15.09;75.55;99840.84;6097439;23;20443;-90
2023/10/12 02:19:04;;;;;;;13.85;5.57;;;;;;;15.14;75.26;99840.38;6120640;23;22775;-90
2023/10/12 02:21:40;;;;;;;11.57;5.55;;;;;;;15.15;76.07;99837.50;6119951;23;20052;-91
2023/10/12 02:26:38;;;;;;;12.15;4.97;;;;;;;15.15;75.99;99834.84;6095902;23;20623;-90
2023/10/12 02:31:39;;;;;;;11.82;5.20;;;;;;;15.15;75.16;99850.88;6117134;23;20031;-91
2023/10/12 02:34:12;;;;;;;15.57;5.78;;;;;;;15.15;75.20;99848.22;6118031;23;20744;-90
2023/10/12 02:36:39;;;;;;;;;;;;;;;14.92;75.71;99855.19;6121598;23;20048;-91
2023/10/12 02:39:20;;;;;;;10.38;5.45;;;;;;;15.08;75.59;99849.03;6116744;23;19939;-91
2023/10/12 02:41:51;;;;;;;14.48;5.30;;;;;;;15.02;75.78;99847.84;6091893;23;20025;-91
2023/10/12 02:44:19;;;;;;;10.02;4.55;;;;;;;15.03;75.61;99851.38;6094479;23;20039;-90
2023/10/12 02:47:04;;;;;;;14.52;4.75;;;;;;;15.01;75.98;99838.19;6095005;23;20378;-90
2023/10/12 02:49:39;;;;;;;13.32;5.50;;;;;;;15.03;75.68;99844.16;6073986;23;20021;-91
2023/10/12 02:52:08;;;;;;;10.38;5.00;;;;;;;15.07;75.60;99834.00;6094519;23;20028;-91
2023/10/12 02:54:42;;;;;;;10.32;5.50;;;;;;;15.01;75.92;99829.28;6095818;23;20025;-90
2023/10/12 02:57:09;;;;;;;11.35;4.97;;;;;;;15.00;75.95;99830.31;6094434;23;20692;-89
2023/10/12 02:59:38;;;;;;;11.73;5.25;;;;;;;14.98;75.69;99841.16;6093799;23;20025;-91
2023/10/12 03:02:19;;;;;;;11.20;5.65;;;;;;;14.98;75.46;99839.34;6093191;23;20025;-90
2023/10/12 03:04:46;;;;;;;10.52;5.22;;;;;;;14.98;75.88;99834.00;6118177;23;20028;-90
2023/10/12 03:07:22;;;;;;;12.25;5.18;;;;;;;14.95;76.17;99847.66;6069327;23;20021;-90
2023/10/12 03:09:58;;;;;;;12.13;5.80;;;;;;;14.93;76.14;99846.16;6120473;23;20025;-90
2023/10/12 03:12:32;;;;;;;12.07;5.65;;;;;;;14.97;76.03;99850.19;6093920;23;20084;-92
2023/10/12 03:15:12;;;;;;;13.27;5.60;;;;;;;14.89;76.10;99847.50;6098267;23;20025;-90
2023/10/12 03:17:52;;;;;;;9.52;5.25;;;;;;;14.89;76.02;99856.34;6073204;23;20041;-91
2023/10/12 03:20:29;;;;;;;11.27;5.78;;;;;;;14.87;76.27;99871.72;6099385;23;20021;-92
2023/10/12 03:23:00;;;;;;;11.82;5.35;;;;;;;14.86;76.42;99872.72;6094859;23;20056;-91
2023/10/12 03:25:42;;;;;;;13.38;4.85;;;;;;;14.85;76.32;99879.06;6118107;23;20104;-91
2023/10/12 03:33:53;;;;;;;15.90;5.25;;;;;;;14.94;75.94;99879.94;6122537;23;20022;-90
2023/10/12 03:36:40;;;;;;;10.07;5.10;;;;;;;14.79;76.17;99884.22;6095106;23;20353;-90
2023/10/12 03:39:27;;;;;;;12.60;5.13;;;;;;;14.90;75.83;99865.19;6092996;23;20026;-90
2023/10/12 03:41:55;;;;;;;10.20;4.80;;;;;;;14.89;76.11;99876.91;6091120;23;20017;-91
2023/10/12 03:47:00;;;;;;;14.07;5.30;;;;;;;14.83;76.26;99867.69;6094661;23;20563;-90
2023/10/12 03:50:17;;;;;;;14.93;5.10;;;;;;;14.79;76.33;99874.38;6094396;23;20045;-91
2023/10/12 03:52:16;;;;;;;8.57;4.72;;;;;;;14.77;76.30;99868.34;6117231;23;20028;-92
2023/10/12 03:54:56;;;;;;;12.88;5.72;;;;;;;14.85;75.91;99870.19;6095814;23;20084;-91
2023/10/12 04:00:25;;;;;;;11.70;5.00;;;;;;;14.82;76.57;99876.72;6095528;23;20020;-92
2023/10/12 04:05:20;;;;;;;10.70;5.03;;;;;;;14.70;76.78;99869.97;6094594;23;20044;-92
2023/10/12 04:16:27;;;;;;;11.82;4.60;;;;;;;14.70;75.93;99865.47;6128996;23;20309;-93
2023/10/12 04:21:28;;;;;;;15.77;5.90;;;;;;;14.69;76.12;99873.66;6113076;23;20017;-93
2023/10/12 04:26:44;;;;;;;13.13;5.50;;;;;;;14.69;76.33;99868.31;6102245;23;20028;-93
2023/10/12 04:29:21;;;;;;;9.75;5.15;;;;;;;14.66;76.74;99868.66;6094367;23;20076;-91
2023/10/12 04:31:49;;;;;;;13.35;5.53;;;;;;;14.68;77.02;99878.19;6072309;23;20045;-92
2023/10/12 04:34:25;;;;;;;13.27;5.35;;;;;;;14.71;76.95;99877.00;6092911;23;20049;-92
2023/10/12 04:37:07;;;;;;;15.00;5.72;;;;;;;14.70;77.00;99888.69;6069734;23;20104;-91
2023/10/12 04:39:37;;;;;;;11.93;5.60;;;;;;;14.65;77.11;99891.84;6096367;23;20390;-91
2023/10/12 04:42:12;;;;;;;13.30;5.18;;;;;;;14.62;77.48;99889.50;6093718;23;20025;-91
2023/10/12 04:44:52;;;;;;;12.00;5.47;;;;;;;14.65;77.42;99883.00;6092509;23;20017;-91
2023/10/12 04:47:23;;;;;;;13.35;5.50;;;;;;;14.67;77.16;99903.22;6072241;23;20021;-91
2023/10/12 04:52:17;;;;;;;10.27;4.75;;;;;;;14.67;77.49;99894.34;6092111;23;20030;-91
2023/10/12 04:55:07;;;;;;;10.95;5.38;;;;;;;14.62;77.16;99902.84;6093776;23;20331;-91
2023/10/12 04:57:35;;;;;;;11.07;4.68;;;;;;;14.64;77.40;99897.38;6093750;23;20025;-91
2023/10/12 05:07:53;;;;;;;10.48;4.57;;;;;;;14.67;77.83;99899.72;6114748;23;20033;-88
2023/10/12 05:13:05;;;;;;;9.48;5.10;;;;;;;14.68;78.23;99896.03;6119430;23;20029;-88
2023/10/12 05:15:42;;;;;;;11.57;5.75;;;;;;;14.68;78.07;99898.69;6094681;23;20575;-88
2023/10/12 05:18:10;;;;;;;18.83;6.00;;;;;;;14.65;77.90;99888.34;6117450;23;20028;-88
2023/10/12 05:20:41;;;;;;;14.02;7.15;;;;;;;14.65;78.07;99891.84;6142547;23;20025;-87
2023/10/12 05:23:09;;;;;;;13.60;6.10;;;;;;;14.62;78.02;99900.19;6093092;23;20518;-88
2023/10/12 05:28:27;;;;;;;9.68;5.82;;;;;;;14.56;78.18;99906.19;6097158;23;20029;-87
2023/10/12 05:30:59;;;;;;;10.05;5.63;;;;;;;14.59;78.16;99913.03;6142785;23;20014;-87
2023/10/12 05:36:01;;;;;;;12.10;6.03;;;;;;;14.59;77.67;99902.34;6142028;23;20045;-87
2023/10/12 05:38:36;;;;;;;11.10;5.43;;;;;;;14.61;77.65;99908.38;6116905;23;20021;-88
2023/10/12 05:41:05;;;;;;;11.60;5.45;;;;;;;14.65;77.98;99899.84;6120238;23;20025;-87
2023/10/12 05:43:36;;;;;;;14.80;5.25;;;;;;;14.71;78.24;99896.56;6117635;23;20048;-88
2023/10/12 05:46:15;;;;;;;15.70;5.00;;;;;;;14.77;78.59;99897.75;6093866;23;20033;-88
2023/10/12 05:48:46;;;;;;;12.93;5.38;;;;;;;14.79;79.02;99897.59;6118009;23;20480;-87
2023/10/12 05:51:15;;;;;;;11.13;5.32;;;;;;;14.84;79.27;99896.09;6094986;23;20084;-87
2023/10/12 05:53:42;;;;;;;10.60;5.40;;;;;;;14.85;79.55;99888.91;6118171;23;20382;-87
2023/10/12 05:56:09;;;;;;;11.40;5.40;;;;;;;14.89;79.70;99896.47;6117608;23;20031;-87
2023/10/12 05:58:38;;;;;;;11.60;5.45;;;;;;;14.95;80.25;99895.78;6143225;23;20021;-88
2023/10/12 06:01:08;;;;;;;13.98;5.28;;;;;;;14.97;80.50;99884.94;6117545;23;20049;-87
2023/10/12 06:03:39;;;;;;;10.15;5.05;;;;;;;15.02;80.40;99889.81;6095243;23;20026;-87
2023/10/12 06:06:09;;;;;;;12.00;5.10;;;;;;;15.01;80.82;99902.34;6093617;23;20033;-88
2023/10/12 06:08:37;;;;;;;11.32;5.05;;;;;;;15.04;80.74;99898.50;6116766;23;20014;-87
2023/10/12 06:11:04;;;;;;;11.63;5.53;;;;;;;15.05;81.17;99914.38;6093478;23;20037;-88
2023/10/12 06:13:39;;;;;;;13.27;6.15;;;;;;;15.01;81.26;99904.16;6093321;23;20441;-87
2023/10/12 06:16:14;;;;;;;12.93;6.03;;;;;;;14.86;81.75;99926.19;6069747;23;20021;-87
2023/10/12 06:18:44;;;;;;;13.70;6.05;;;;;;;14.88;81.64;99934.91;6095017;23;20088;-87
2023/10/12 06:21:17;;;;;;;10.90;6.40;;;;;;;14.87;82.15;99938.56;6091769;23;20570;-87
2023/10/12 06:23:50;;;;;;;;;;;;;;;14.68;83.57;99950.34;6115910;23;20023;-88
2023/10/12 06:26:28;;;;;;;15.60;6.47;;;;;;;14.87;82.06;99967.13;6117842;23;20001;-88
2023/10/12 06:28:57;;;;;;;17.95;6.75;;;;;;;14.85;80.83;99972.63;6116397;23;20478;-87
2023/10/12 06:31:29;;;;;;;14.18;6.40;;;;;;;14.84;80.77;99964.78;6115286;23;20041;-87
2023/10/12 06:33:59;;;;;;;11.70;6.20;;;;;;;14.82;81.11;99956.91;6089516;23;20088;-88
2023/10/12 06:36:38;;;;;;;19.00;6.82;;;;;;;14.86;81.10;99949.41;6091472;23;20100;-88
2023/10/12 06:44:27;;;;;;;10.90;6.20;;;;;;;14.94;80.96;99946.78;6118047;23;20076;-87
2023/10/12 06:46:57;;;;;;;12.00;5.93;;;;;;;14.98;81.07;99927.59;6118459;23;20025;-88
2023/10/12 06:49:28;;;;;;;11.40;6.78;;;;;;;15.04;81.72;99941.31;6119261;23;20418;-88
2023/10/12 06:52:03;;;;;;;14.88;6.65;;;;;;;15.05;81.84;99943.78;6092860;23;20031;-88
2023/10/12 06:54:39;;;;;;;18.35;6.97;;;;;;;15.00;82.22;99937.25;6093363;23;20509;-88
2023/10/12 07:02:46;;;;;;;19.13;8.05;;;;;;;15.00;81.90;99974.69;6085041;23;20087;-88
2023/10/12 07:05:19;;;;;;;12.52;7.55;;;;;;;15.01;81.93;99971.88;6117126;23;21778;-88
2023/10/12 07:07:51;;;;;;;17.15;6.90;;;;;;;14.98;82.12;99977.53;6092456;23;20017;-87
2023/10/12 07:10:28;;;;;;;15.82;6.57;;;;;;;15.01;81.73;99981.72;6117995;23;20029;-87
2023/10/12 07:12:59;;;;;;;16.17;7.57;;;;;;;15.02;81.87;99991.44;6141016;23;20029;-87
2023/10/12 07:15:32;;;;;;;13.82;6.80;;;;;;;15.01;82.13;99989.72;6117269;23;20022;-88
2023/10/12 07:18:05;;;;;;;13.18;7.15;;;;;;;15.02;82.16;99992.25;6140087;23;20029;-87
2023/10/12 07:23:14;;;;;;;13.48;6.60;;;;;;;15.08;82.42;99988.94;6114331;23;20036;-87
2023/10/12 07:25:51;;;;;;;16.27;5.93;;;;;;;15.02;83.27;99994.09;6070710;23;20097;-88
2023/10/12 07:28:33;;;;;;;16.33;7.18;;;;;;;15.09;82.69;99993.31;6142127;23;20096;-87
2023/10/12 07:34:00;;;;;;;13.07;5.93;;;;;;;15.06;82.72;100006.13;6118887;23;20025;-87
2023/10/12 07:36:44;;;;;;;16.40;6.57;;;;;;;15.09;82.69;99995.16;6070685;23;20454;-87
2023/10/12 07:39:22;;;;;;;16.70;7.40;;;;;;;15.08;82.92;100001.47;6118739;23;20025;-87
2023/10/12 07:44:27;;;;;;;;;;;;;;;14.91;84.89;100011.28;6117853;23;20022;-87
2023/10/12 07:46:58;;;;;;;13.98;6.57;;;;;;;15.11;83.66;100007.34;6115386;23;20406;-87
2023/10/12 07:54:47;;;;;;;14.73;7.00;;;;;;;15.23;83.85;99994.50;6139728;23;20021;-87
2023/10/12 07:57:15;;;;;;;15.48;8.02;;;;;;;15.30;83.65;99992.03;6095921;23;20076;-87
2023/10/12 07:59:54;;;;;;;11.77;6.75;;;;;;;15.32;83.72;99985.53;6119194;23;20095;-88
2023/10/12 08:23:58;;;;;;;15.70;8.20;;;;;;;15.46;84.58;100002.78;6116212;23;20099;-87
2023/10/12 08:26:35;;;;;;;16.73;7.25;;;;;;;15.48;84.45;100005.31;6094680;23;20025;-87
2023/10/12 08:29:09;;;;;;;13.88;7.15;;;;;;;15.51;84.22;100003.13;6070567;23;20029;-87
2023/10/12 08:31:43;;;;;;;16.90;6.80;;;;;;;15.54;84.05;99997.44;6068446;23;20218;-87
2023/10/12 08:34:41;;;;;;;16.00;7.18;;;;;;;15.60;83.83;100006.66;6092820;23;20021;-88
2023/10/12 08:39:49;;;;;;;13.38;6.93;;;;;;;15.67;83.56;99991.59;6093763;23;20064;-87
2023/10/12 08:44:59;;;;;;;15.07;7.18;;;;;;;15.75;83.59;99999.72;6093033;23;20022;-87
2023/10/12 08:50:08;;;;;;;16.35;7.25;;;;;;;15.84;83.47;99993.34;6117334;23;20040;-87
2023/10/12 08:52:38;;;;;;;;;;;;;;;15.74;84.82;99986.47;6092679;23;20017;-88
2023/10/12 08:55:13;;;;;;;18.23;8.00;;;;;;;15.87;83.47;99996.69;6090556;23;19926;-88
2023/10/12 08:58:18;;;;;;;11.10;7.75;;;;;;;15.86;84.25;99993.19;6068692;23;20057;-87
2023/10/12 09:00:55;;;;;;;15.98;6.97;;;;;;;15.93;83.92;99986.16;6142093;23;20367;-87
2023/10/12 09:03:37;;;;;;;14.30;6.88;;;;;;;15.99;83.91;99985.47;6093206;23;20021;-87
2023/10/12 09:08:52;;;;;;;15.43;6.70;;;;;;;16.05;84.04;100006.25;6096102;23;20023;-87
2023/10/12 09:11:25;;;;;;;14.75;8.57;;;;;;;16.07;84.45;100011.44;6091968;23;20017;-87
2023/10/12 09:13:54;;;;;;;19.40;8.07;;;;;;;16.09;84.60;100004.06;6091755;23;20021;-88
2023/10/12 09:16:21;;;;;;;14.80;6.93;;;;;;;16.12;84.91;100006.41;6115501;23;20041;-88
2023/10/12 09:18:50;;;;;;;14.77;6.80;;;;;;;16.13;84.86;100000.06;6091420;23;20112;-87
2023/10/12 09:26:33;;;;;;;19.23;8.45;;;;;;;16.16;85.02;100013.13;6094752;23;20449;-88
2023/10/12 09:36:53;;;;;;;13.40;6.97;;;;;;;16.34;84.43;100015.63;6118149;23;20037;-87
2023/10/12 09:39:26;;;;;;;16.35;7.20;;;;;;;16.40;84.41;100009.56;6118838;23;20024;-88
2023/10/12 09:41:58;;;;;;;17.60;8.18;;;;;;;16.47;84.55;100005.22;6092544;23;20775;-88
2023/10/12 09:44:27;;;;;;;17.77;7.13;;;;;;;16.52;84.68;100012.75;6115544;23;20029;-87
2023/10/12 09:46:57;;;;;;;22.02;9.18;;;;;;;16.59;84.79;100008.41;6091655;23;20419;-88
2023/10/12 09:49:27;;;;;;;14.20;7.82;;;;;;;16.63;84.94;100011.56;6115324;23;20664;-88
2023/10/12 09:51:59;;;;;;;14.07;6.95;;;;;;;16.63;84.39;100015.06;6066050;23;20045;-89
2023/10/12 09:54:45;;;;;;;16.55;7.60;;;;;;;16.63;84.56;100011.56;6092508;23;20329;-88
2023/10/12 09:57:28;;;;;;;15.23;7.68;;;;;;;16.69;84.96;100016.25;6092833;23;20021;-87
2023/10/12 09:59:59;;;;;;;18.58;7.90;;;;;;;16.73;85.06;100012.22;6073292;23;20021;-88
2023/10/12 10:02:33;;;;;;;16.52;7.07;;;;;;;16.79;85.57;100018.75;6118071;23;20057;-87
2023/10/12 10:05:11;;;;;;;15.27;7.03;;;;;;;16.81;85.29;100014.88;6119118;23;20029;-88
2023/10/12 10:07:52;;;;;;;19.52;7.75;;;;;;;16.85;85.62;100021.59;6119569;23;20555;-88
2023/10/12 10:10:33;;;;;;;15.23;7.25;;;;;;;16.97;85.51;100026.59;6095826;23;20517;-88
2023/10/12 10:13:08;;;;;;;16.70;7.22;;;;;;;17.01;85.53;100025.25;6093187;23;20040;-87
2023/10/12 10:15:55;;;;;;;16.92;6.80;;;;;;;17.01;86.07;100018.03;6071128;23;20025;-88
2023/10/12 10:18:28;;;;;;;12.43;6.13;;;;;;;17.09;85.73;100009.09;6095357;23;20049;-87
2023/10/12 10:21:01;;;;;;;14.65;5.70;;;;;;;17.13;85.72;100005.91;6093163;23;20026;-88
2023/10/12 10:23:29;;;;;;;12.00;6.10;;;;;;;17.19;85.08;100006.22;6117409;23;20033;-87
2023/10/12 10:26:16;;;;;;;10.73;5.20;;;;;;;17.25;84.73;100011.75;6093778;23;20390;-88
2023/10/12 10:29:04;;;;;;;10.27;5.38;;;;;;;17.28;84.82;100013.25;6097318;23;20458;-88
2023/10/12 10:31:36;;;;;;;11.48;5.32;;;;;;;17.32;85.26;100022.59;6097518;23;20047;-88
2023/10/12 10:34:06;;;;;;;13.27;5.45;;;;;;;17.36;85.38;100018.56;6092684;23;20100;-88
2023/10/12 10:36:36;;;;;;;13.82;5.55;;;;;;;17.41;85.37;100020.72;6069282;23;20703;-88
2023/10/12 10:44:21;;;;;;;14.20;5.72;;;;;;;17.47;83.83;100004.72;6092424;23;20051;-87
2023/10/12 10:46:54;;;;;;;9.27;5.18;;;;;;;17.51;83.11;100005.22;6097044;23;20084;-87
2023/10/12 10:49:21;;;;;;;10.95;5.88;;;;;;;17.54;82.76;100003.03;6070660;23;20018;-88
2023/10/12 10:52:26;;;;;;;10.70;5.43;;;;;;;17.57;82.10;100001.81;6094967;23;20519;-87
2023/10/12 10:54:59;;;;;;;12.50;5.75;;;;;;;17.63;81.75;100002.97;6097551;23;20029;-88
2023/10/12 10:57:31;;;;;;;11.93;5.05;;;;;;;17.64;81.65;100005.47;6095023;23;20021;-88
2023/10/12 10:59:58;;;;;;;15.93;5.45;;;;;;;17.66;80.78;100016.88;6094176;23;20045;-88
2023/10/12 11:02:26;;;;;;;9.63;5.38;;;;;;;17.67;80.31;100017.72;6116579;23;20025;-88
2023/10/12 11:05:00;;;;;;;10.35;5.20;;;;;;;17.68;80.00;100014.88;6092593;23;20092;-88
2023/10/12 11:07:27;;;;;;;11.38;4.93;;;;;;;17.69;79.83;100011.16;6142021;23;20017;-87
2023/10/12 11:12:30;;;;;;;11.82;5.28;;;;;;;17.72;78.90;100004.59;6139001;23;20025;-87
2023/10/12 11:15:00;;;;;;;9.15;4.82;;;;;;;17.71;78.97;100001.06;6094181;23;20382;-88
2023/10/12 11:17:30;;;;;;;7.82;5.10;;;;;;;17.72;78.85;99996.53;6094608;23;20025;-89
2023/10/12 11:20:00;;;;;;;7.82;5.10;;;;;;;17.72;78.33;99996.53;6094430;23;20029;-87
2023/10/12 11:22:27;;;;;;;15.30;6.18;;;;;;;17.72;78.39;99986.63;6115831;23;20568;-89
2023/10/12 11:24:54;;;;;;;9.00;5.10;;;;;;;17.74;78.21;99984.59;6116894;23;20446;-88
2023/10/12 11:27:35;;;;;;;11.40;6.15;;;;;;;17.72;77.39;99981.25;6093322;23;20114;-89
2023/10/12 11:30:08;;;;;;;13.63;5.68;;;;;;;17.80;77.75;99983.06;6092630;23;20072;-89
2023/10/12 11:32:55;;;;;;;11.55;4.97;;;;;;;17.75;77.47;99978.19;6069989;23;20021;-89
2023/10/12 11:35:33;;;;;;;11.30;5.00;;;;;;;17.80;77.14;99985.75;6141076;23;20048;-88
2023/10/12 11:38:03;;;;;;;9.30;5.15;;;;;;;17.85;77.24;99982.53;6092425;23;20457;-89
2023/10/12 11:40:30;;;;;;;10.23;5.20;;;;;;;17.90;77.39;99990.91;6117751;23;20018;-89
2023/10/12 11:42:57;;;;;;;10.27;5.75;;;;;;;17.93;77.15;99987.84;6091458;23;20021;-89
2023/10/12 11:45:33;;;;;;;13.13;5.05;;;;;;;17.91;76.92;99985.34;6092606;23;20052;-89
2023/10/12 11:48:24;;;;;;;12.50;5.30;;;;;;;17.86;76.60;99978.81;6116919;23;20052;-89
2023/10/12 11:50:51;;;;;;;11.82;5.55;;;;;;;17.93;76.66;99983.31;6109444;23;20025;-88
2023/10/12 11:53:18;;;;;;;10.75;5.18;;;;;;;17.93;76.47;99975.25;6116909;23;20026;-87
2023/10/12 11:55:47;;;;;;;7.85;5.03;;;;;;;17.94;76.19;99979.63;6070306;23;20022;-89
2023/10/12 11:58:19;;;;;;;8.57;4.90;;;;;;;17.91;76.08;99977.31;6116825;23;20037;-89
2023/10/12 12:00:49;;;;;;;11.18;5.53;;;;;;;17.91;76.21;99954.94;6118206;23;20029;-89
2023/10/12 12:03:17;;;;;;;11.85;5.57;;;;;;;17.90;76.15;99947.91;6116919;23;20032;-89
2023/10/12 12:05:50;;;;;;;10.32;4.80;;;;;;;17.90;76.19;99956.81;6118325;23;20023;-88
2023/10/12 12:08:24;;;;;;;11.40;5.78;;;;;;;17.92;76.60;99962.00;6118580;23;20373;-88
2023/10/12 12:10:55;;;;;;;14.05;5.57;;;;;;;17.94;77.01;99968.88;6119222;23;20042;-88
2023/10/12 12:13:21;;;;;;;11.30;5.28;;;;;;;17.93;77.12;99980.63;6092351;23;20029;-88
2023/10/12 12:15:50;;;;;;;11.27;5.15;;;;;;;17.93;76.62;99963.66;6115361;23;20028;-89
2023/10/12 12:18:19;;;;;;;10.52;4.78;;;;;;;17.91;76.57;99952.25;6093667;23;20098;-88
2023/10/12 12:20:47;;;;;;;10.18;5.75;;;;;;;17.91;76.52;99955.81;6118682;23;20013;-88
2023/10/12 12:23:14;;;;;;;8.63;4.95;;;;;;;17.91;76.92;99949.56;6115178;23;20032;-88
2023/10/12 12:25:41;;;;;;;11.73;5.82;;;;;;;17.93;76.85;99969.03;6092696;23;20028;-88
2023/10/12 12:28:16;;;;;;;7.63;5.10;;;;;;;17.94;76.95;99951.94;6067916;23;20402;-89
2023/10/12 12:30:46;;;;;;;9.90;5.90;;;;;;;17.93;77.11;99953.75;6069301;23;20045;-89
2023/10/12 12:33:19;;;;;;;10.57;4.65;;;;;;;17.94;76.88;99952.75;6091021;23;20032;-88
2023/10/12 12:35:59;;;;;;;11.23;5.68;;;;;;;17.92;76.43;99948.59;6116375;23;20645;-87
2023/10/12 12:41:05;;;;;;;11.32;4.97;;;;;;;17.95;76.25;99950.91;6093570;23;20092;-88
2023/10/12 12:43:35;;;;;;;7.18;4.50;;;;;;;17.93;76.82;99959.13;6117065;23;20029;-88
2023/10/12 12:46:03;;;;;;;11.10;5.40;;;;;;;17.92;76.94;99967.38;6116597;23;20471;-88
2023/10/12 12:48:30;;;;;;;16.02;5.82;;;;;;;17.94;77.52;99965.34;6068999;23;20061;-88
2023/10/12 12:51:00;;;;;;;11.25;5.68;;;;;;;17.94;78.49;99962.69;6117108;23;20021;-87
2023/10/12 12:53:28;;;;;;;11.77;5.75;;;;;;;17.96;79.03;99968.69;6115453;23;20105;-88
2023/10/12 12:55:56;;;;;;;14.43;6.20;;;;;;;17.95;80.19;99969.72;6092517;23;20052;-88
2023/10/12 12:58:24;;;;;;;11.50;6.25;;;;;;;17.96;81.67;99960.63;6092177;23;20034;-88
2023/10/12 13:00:52;;;;;;;10.77;6.10;;;;;;;17.96;81.23;99952.56;6116777;23;20025;-87
2023/10/12 13:03:20;;;;;;;13.15;5.97;;;;;;;17.95;82.71;99940.97;6065612;23;20056;-88
2023/10/12 13:05:47;;;;;;;11.50;6.32;;;;;;;17.95;83.10;99935.59;6092349;23;20080;-88
2023/10/12 13:08:16;;;;;;;11.88;6.07;;;;;;;17.94;83.91;99915.16;6091783;23;20025;-87
2023/10/12 13:10:44;;;;;;;12.02;5.90;;;;;;;17.94;82.77;99898.19;6094528;23;20354;-87
2023/10/12 13:13:12;;;;;;;11.10;5.90;;;;;;;17.94;82.50;99890.97;6115395;23;20086;-88
2023/10/12 13:15:42;;;;;;;9.55;6.13;;;;;;;17.95;82.90;99894.47;6091963;23;20562;-88
2023/10/12 13:18:15;;;;;;;11.02;6.45;;;;;;;17.94;83.94;99885.59;6092226;23;20025;-87
2023/10/12 13:20:46;;;;;;;13.10;7.05;;;;;;;17.92;84.36;99895.69;6094685;23;20017;-87
2023/10/12 13:23:21;;;;;;;13.60;6.35;;;;;;;17.89;84.94;99906.78;6140030;23;20075;-87
2023/10/12 13:25:49;;;;;;;10.32;6.53;;;;;;;17.87;85.49;99922.25;6117711;23;20017;-87
2023/10/12 13:28:16;;;;;;;13.10;6.10;;;;;;;17.84;85.48;99925.31;6093061;23;20037;-87
2023/10/12 13:30:44;;;;;;;11.02;5.95;;;;;;;17.84;85.82;99930.69;6140490;23;20033;-88
2023/10/12 13:33:21;;;;;;;12.95;6.65;;;;;;;17.81;86.18;99928.34;6092048;23;20018;-88
2023/10/12 13:35:48;;;;;;;10.88;6.35;;;;;;;17.79;86.76;99939.28;6093771;23;20453;-88
2023/10/12 13:38:18;;;;;;;11.35;6.88;;;;;;;17.79;87.18;99949.16;6070975;23;20084;-87
2023/10/12 13:40:46;;;;;;;11.55;6.28;;;;;;;17.75;87.44;99929.03;6119766;23;20021;-88
2023/10/12 13:43:21;;;;;;;14.60;7.28;;;;;;;17.74;88.23;99914.78;6093235;23;20030;-88
2023/10/12 13:45:52;;;;;;;12.50;6.88;;;;;;;17.73;89.29;99910.44;6120369;23;20427;-88
2023/10/12 13:48:27;;;;;;;12.82;6.68;;;;;;;17.71;90.83;99930.41;6095719;23;20101;-88
2023/10/12 13:51:08;;;;;;;13.02;6.72;;;;;;;17.68;90.54;99926.25;6120918;23;20027;-88
2023/10/12 13:53:38;;;;;;;11.57;7.00;;;;;;;17.66;90.47;99922.91;6095566;23;20458;-88
2023/10/12 13:56:08;;;;;;;13.00;7.15;;;;;;;17.64;91.42;99913.34;6095601;23;20543;-89
2023/10/12 13:58:38;;;;;;;14.55;7.78;;;;;;;17.62;91.55;99894.72;6095771;23;20023;-89
2023/10/12 14:01:13;;;;;;;18.45;8.23;;;;;;;17.60;92.49;99875.25;6117107;23;20602;-89
2023/10/12 14:03:45;;;;;;;16.08;7.65;;;;;;;17.57;92.81;99868.41;6120117;23;20096;-89
2023/10/12 14:06:13;;;;;;;18.20;8.25;;;;;;;17.57;93.52;99883.69;6096450;23;20682;-89
2023/10/12 14:08:40;;;;;;;15.13;8.43;;;;;;;17.55;93.69;99875.84;6119083;23;20022;-89
2023/10/12 14:11:13;;;;;;;14.18;8.05;;;;;;;17.54;94.83;99889.41;6094435;23;20830;-90
2023/10/12 14:13:40;;;;;;;13.50;7.72;;;;;;;17.55;94.71;99883.88;6070161;23;20029;-89
2023/10/12 14:16:09;;;;;;;14.57;7.10;;;;;;;17.52;95.00;99881.53;6094297;23;20084;-89
2023/10/12 14:18:39;;;;;;;14.70;7.90;;;;;;;17.50;95.21;99872.00;6094105;23;20068;-89
2023/10/12 14:21:11;;;;;;;16.02;6.93;;;;;;;17.51;95.58;99863.78;6118371;23;20396;-88